sensor_id;sensor_type;location;lat;lon;timestamp;pressure;altitude;pressure_sealevel;temperature;humidity
19890;BME280;10107;51.198;6.824;2023-07-08T06:18:22;-22186.31;;;33.89;26.95
19890;BME280;10107;51.198;6.824;2023-07-08T06:22:24;-22173.75;;;33.38;26.67
19890;BME280;10107;51.198;6.824;2023-07-08T06:26:25;-22181.13;;;33.68;26.78
19890;BME280;10107;51.198;6.824;2023-07-08T06:30:27;-22212.16;;;34.94;24.88
19890;BME280;10107;51.198;6.824;2023-07-08T06:34:30;-22227.97;;;35.58;24.12
19890;BME280;10107;51.198;6.824;2023-07-08T06:38:32;-22256.00;;;36.72;22.99
19890;BME280;10107;51.198;6.824;2023-07-08T06:42:33;-22280.56;;;37.72;22.07
19890;BME280;10107;51.198;6.824;2023-07-08T06:47:03;-22298.53;;;38.45;21.16
19890;BME280;10107;51.198;6.824;2023-07-08T06:51:06;-22320.47;;;39.35;19.75
19890;BME280;10107;51.198;6.824;2023-07-08T06:55:10;-22342.25;;;40.24;19.31
19890;BME280;10107;51.198;6.824;2023-07-08T06:59:12;-22357.25;;;40.86;19.00
19890;BME280;10107;51.198;6.824;2023-07-08T07:03:14;-22367.22;;;41.27;18.88
19890;BME280;10107;51.198;6.824;2023-07-08T07:07:17;-22372.72;;;41.49;18.48
19890;BME280;10107;51.198;6.824;2023-07-08T07:11:18;-22379.31;;;41.77;17.92
19890;BME280;10107;51.198;6.824;2023-07-08T07:15:20;-22380.06;;;41.80;17.25
19890;BME280;10107;51.198;6.824;2023-07-08T07:19:22;-22370.09;;;41.39;17.31
19890;BME280;10107;51.198;6.824;2023-07-08T07:23:25;-22398.50;;;42.56;16.70
19890;BME280;10107;51.198;6.824;2023-07-08T07:27:27;-22415.75;;;43.27;16.60
19890;BME280;10107;51.198;6.824;2023-07-08T07:31:28;-22420.97;;;43.48;15.64
19890;BME280;10107;51.198;6.824;2023-07-08T07:35:30;-22395.38;;;42.43;15.74
19890;BME280;10107;51.198;6.824;2023-07-08T07:39:33;-22425.44;;;43.67;14.94
19890;BME280;10107;51.198;6.824;2023-07-08T07:43:35;-22439.44;;;44.25;13.98
19890;BME280;10107;51.198;6.824;2023-07-08T07:47:37;-22435.00;;;44.06;14.44
19890;BME280;10107;51.198;6.824;2023-07-08T07:51:39;-22450.09;;;44.69;14.11
19890;BME280;10107;51.198;6.824;2023-07-08T07:55:42;-22426.06;;;43.69;14.65
19890;BME280;10107;51.198;6.824;2023-07-08T07:59:44;-22365.38;;;41.19;16.22
19890;BME280;10107;51.198;6.824;2023-07-08T08:03:45;-22305.06;;;38.72;18.42
19890;BME280;10107;51.198;6.824;2023-07-08T08:07:47;-22404.22;;;42.79;15.79
19890;BME280;10107;51.198;6.824;2023-07-08T08:11:50;-22453.56;;;44.83;14.48
19890;BME280;10107;51.198;6.824;2023-07-08T08:15:56;-22406.94;;;42.90;16.03
19890;BME280;10107;51.198;6.824;2023-07-08T08:19:57;-22390.28;;;42.22;16.90
19890;BME280;10107;51.198;6.824;2023-07-08T08:23:59;-22337.75;;;40.06;17.74
19890;BME280;10107;51.198;6.824;2023-07-08T08:28:02;-22335.75;;;39.97;18.66
19890;BME280;10107;51.198;6.824;2023-07-08T08:32:04;-22350.00;;;40.56;17.84
19890;BME280;10107;51.198;6.824;2023-07-08T08:36:05;-22358.88;;;40.92;17.48
19890;BME280;10107;51.198;6.824;2023-07-08T08:40:12;-22355.00;;;40.76;17.43
19890;BME280;10107;51.198;6.824;2023-07-08T08:44:17;-22367.72;;;41.29;17.02
19890;BME280;10107;51.198;6.824;2023-07-08T08:48:25;-22383.44;;;41.93;17.00
19890;BME280;10107;51.198;6.824;2023-07-08T08:52:29;-22393.91;;;42.37;16.58
19890;BME280;10107;51.198;6.824;2023-07-08T08:56:36;-22409.06;;;42.99;16.20
19890;BME280;10107;51.198;6.824;2023-07-08T09:00:55;-22399.50;;;42.60;16.15
19890;BME280;10107;51.198;6.824;2023-07-08T09:04:59;-22397.50;;;42.51;15.60
19890;BME280;10107;51.198;6.824;2023-07-08T09:09:09;-22384.44;;;41.98;16.07
19890;BME280;10107;51.198;6.824;2023-07-08T09:13:21;-22384.31;;;41.97;16.80
19890;BME280;10107;51.198;6.824;2023-07-08T09:17:30;-22405.34;;;42.84;15.80
19890;BME280;10107;51.198;6.824;2023-07-08T09:21:39;-22393.16;;;42.33;16.55
19890;BME280;10107;51.198;6.824;2023-07-08T09:25:47;-22386.31;;;42.05;16.34
19890;BME280;10107;51.198;6.824;2023-07-08T09:29:50;-22394.88;;;42.41;16.73
19890;BME280;10107;51.198;6.824;2023-07-08T09:34:05;-22415.03;;;43.24;16.28
19890;BME280;10107;51.198;6.824;2023-07-08T09:38:09;-22414.03;;;43.20;16.33
19890;BME280;10107;51.198;6.824;2023-07-08T09:42:13;-22421.97;;;43.53;15.99
19890;BME280;10107;51.198;6.824;2023-07-08T09:46:16;-22438.59;;;44.21;15.92
19890;BME280;10107;51.198;6.824;2023-07-08T09:50:23;-22433.50;;;44.00;15.62
19890;BME280;10107;51.198;6.824;2023-07-08T09:54:26;-22416.50;;;43.30;16.08
19890;BME280;10107;51.198;6.824;2023-07-08T09:58:31;-22411.03;;;43.07;16.63
19890;BME280;10107;51.198;6.824;2023-07-08T10:02:39;-22406.56;;;42.89;16.01
19890;BME280;10107;51.198;6.824;2023-07-08T10:06:44;-22410.06;;;43.03;16.43
19890;BME280;10107;51.198;6.824;2023-07-08T10:10:51;-22413.66;;;43.18;15.65
19890;BME280;10107;51.198;6.824;2023-07-08T10:14:58;-22420.09;;;43.45;16.63
19890;BME280;10107;51.198;6.824;2023-07-08T10:19:01;-22419.25;;;43.41;15.44
19890;BME280;10107;51.198;6.824;2023-07-08T10:23:17;-22421.97;;;43.53;15.89
19890;BME280;10107;51.198;6.824;2023-07-08T10:27:27;-22421.72;;;43.51;15.34
19890;BME280;10107;51.198;6.824;2023-07-08T10:31:37;-22420.34;;;43.46;15.82
19890;BME280;10107;51.198;6.824;2023-07-08T10:35:44;-22397.50;;;42.51;16.57
19890;BME280;10107;51.198;6.824;2023-07-08T10:40:07;-22424.44;;;43.63;15.60
19890;BME280;10107;51.198;6.824;2023-07-08T10:44:21;-22426.94;;;43.73;15.90
19890;BME280;10107;51.198;6.824;2023-07-08T10:48:40;-22431.75;;;43.93;15.97
19890;BME280;10107;51.198;6.824;2023-07-08T10:52:51;-22418.13;;;43.37;15.97
19890;BME280;10107;51.198;6.824;2023-07-08T10:57:09;-22423.34;;;43.58;16.15
19890;BME280;10107;51.198;6.824;2023-07-08T11:01:24;-22431.16;;;43.90;15.41
19890;BME280;10107;51.198;6.824;2023-07-08T11:05:32;-22426.56;;;43.72;16.02
19890;BME280;10107;51.198;6.824;2023-07-08T11:09:42;-22423.69;;;43.60;16.79
19890;BME280;10107;51.198;6.824;2023-07-08T11:13:51;-22415.63;;;43.26;17.14
19890;BME280;10107;51.198;6.824;2023-07-08T11:17:59;-22407.69;;;42.94;17.42
19890;BME280;10107;51.198;6.824;2023-07-08T11:22:05;-22420.72;;;43.47;16.63
19890;BME280;10107;51.198;6.824;2023-07-08T11:26:16;-22427.81;;;43.77;16.43
19890;BME280;10107;51.198;6.824;2023-07-08T11:30:23;-22425.06;;;43.65;16.72
19890;BME280;10107;51.198;6.824;2023-07-08T11:34:26;-22424.06;;;43.61;16.17
19890;BME280;10107;51.198;6.824;2023-07-08T11:38:28;-22418.38;;;43.38;16.75
19890;BME280;10107;51.198;6.824;2023-07-08T11:42:35;-22419.97;;;43.44;16.73
19890;BME280;10107;51.198;6.824;2023-07-08T11:46:54;-22408.94;;;42.99;16.43
19890;BME280;10107;51.198;6.824;2023-07-08T11:50:57;-22418.25;;;43.37;16.24
19890;BME280;10107;51.198;6.824;2023-07-08T11:55:22;-22422.97;;;43.57;16.09
19890;BME280;10107;51.198;6.824;2023-07-08T11:59:30;-22430.91;;;43.89;16.56
19890;BME280;10107;51.198;6.824;2023-07-08T12:03:36;-22433.63;;;44.01;17.01
19890;BME280;10107;51.198;6.824;2023-07-08T12:07:41;-22416.25;;;43.29;15.94
19890;BME280;10107;51.198;6.824;2023-07-08T12:11:45;-22403.84;;;42.78;16.66
19890;BME280;10107;51.198;6.824;2023-07-08T12:15:47;-22392.78;;;42.32;17.38
19890;BME280;10107;51.198;6.824;2023-07-08T12:19:50;-22388.41;;;42.14;17.35
19890;BME280;10107;51.198;6.824;2023-07-08T12:23:54;-22387.53;;;42.10;17.60
19890;BME280;10107;51.198;6.824;2023-07-08T12:27:55;-22392.41;;;42.30;17.42
19890;BME280;10107;51.198;6.824;2023-07-08T12:31:58;-22377.09;;;41.67;17.92
19890;BME280;10107;51.198;6.824;2023-07-08T12:36:02;-22363.75;;;41.12;18.81
19890;BME280;10107;51.198;6.824;2023-07-08T12:40:09;-22366.97;;;41.26;19.52
19890;BME280;10107;51.198;6.824;2023-07-08T12:44:17;-22372.97;;;41.50;17.88
19890;BME280;10107;51.198;6.824;2023-07-08T12:48:20;-22373.72;;;41.53;17.36
19890;BME280;10107;51.198;6.824;2023-07-08T12:52:23;-22372.97;;;41.50;17.16
19890;BME280;10107;51.198;6.824;2023-07-08T12:56:25;-22371.09;;;41.43;17.90
19890;BME280;10107;51.198;6.824;2023-07-08T13:00:29;-22375.47;;;41.61;18.48
19890;BME280;10107;51.198;6.824;2023-07-08T13:04:31;-22370.22;;;41.39;17.73
19890;BME280;10107;51.198;6.824;2023-07-08T13:08:36;-22376.09;;;41.63;18.27
19890;BME280;10107;51.198;6.824;2023-07-08T13:12:40;-22358.00;;;40.89;17.90
19890;BME280;10107;51.198;6.824;2023-07-08T13:16:42;-22347.00;;;40.44;17.32
19890;BME280;10107;51.198;6.824;2023-07-08T13:20:47;-22357.00;;;40.85;18.05
19890;BME280;10107;51.198;6.824;2023-07-08T13:25:00;-22348.88;;;40.51;18.13
19890;BME280;10107;51.198;6.824;2023-07-08T13:29:09;-22339.63;;;40.13;19.14
19890;BME280;10107;51.198;6.824;2023-07-08T13:33:16;-22343.50;;;40.29;18.43
19890;BME280;10107;51.198;6.824;2023-07-08T13:37:18;-22340.00;;;40.15;18.62
19890;BME280;10107;51.198;6.824;2023-07-08T13:41:23;-22334.25;;;39.91;18.35
19890;BME280;10107;51.198;6.824;2023-07-08T13:45:27;-22336.00;;;39.98;19.78
19890;BME280;10107;51.198;6.824;2023-07-08T13:49:31;-22333.63;;;39.89;18.86
19890;BME280;10107;51.198;6.824;2023-07-08T13:53:45;-22331.25;;;39.79;18.13
19890;BME280;10107;51.198;6.824;2023-07-08T13:57:57;-22330.25;;;39.75;17.80
19890;BME280;10107;51.198;6.824;2023-07-08T14:01:59;-22321.09;;;39.37;19.11
19890;BME280;10107;51.198;6.824;2023-07-08T14:06:00;-22311.06;;;38.96;19.18
19890;BME280;10107;51.198;6.824;2023-07-08T14:10:07;-22306.81;;;38.79;19.89
19890;BME280;10107;51.198;6.824;2023-07-08T14:14:11;-22307.69;;;38.82;19.47
